Disclaimer

Please do not use the information listed here in-flight or in-navigation, as they are not provided to us by the airports but are provided by volunteers, so they might be outdated.

Search


Regions


Airport information page

Radio informations:
Tower (TWR) - 118.1 MHz
Ground (GND) - 121.9 MHz
Approach (APP) - 119.1 MHz
A/G VOICE RDO - 129.5 MHz

Airport informations:
Latitude: 08° 51' 30.15" S
Longitude: 013° 13' 52.24" E
Elevation: 243 feet - 74 meters
Operating hours: N/A
Operating agency: Military-civil joint use airport
Timezone: UTC+1
Fuel: Jet A1, without icing nhibitor.

100/130 MIL Spec, low lead, aviation gasoline (BLUE)

Runway information:
05/23 - 12190 x 148 feet< - >3716 x 45 meters
07/25 - 8530 x 197 feet< - >2600 x 60 meters

Recent METARs:
FNLU 130100Z 23005KT 9999 BKN020 25/21 Q1014
FNLU 130200Z 19005KT 9999 BKN020 25/21 Q1013
FNLU 130300Z 19005KT 9999 BKN020 24/21 Q1013

Airport on the map: